Time;durP1;ratioP1;P1;durP2;ratioP2;P2;SDS_P1;SDS_P2;PMS_P1;PMS_P2;Temp;Humidity;BMP_temperature;BMP_pressure;BME280_temperature;BME280_humidity;BME280_pressure;Samples;Min_cycle;Max_cycle;Signal;HPM_P1;HPM_P2
2022/06/24 00:00:07;;;;;;;14.13;4.78;;;;;;;16.72;53.67;99507.50;5018786;28;20462;-92
2022/06/24 00:07:45;;;;;;;13.00;4.47;;;;;;;16.54;50.30;99475.81;5056778;28;20037;-93
2022/06/24 00:17:39;;;;;;;19.88;5.65;;;;;;;16.68;50.36;99503.81;5055016;28;20037;-91
2022/06/24 00:20:15;;;;;;;22.50;5.53;;;;;;;16.70;50.69;99489.69;5014434;28;20033;-90
2022/06/24 00:22:46;;;;;;;;;;;;;;;16.95;49.70;99526.31;5055352;28;20044;-93
2022/06/24 00:25:15;;;;;;;14.30;5.95;;;;;;;16.56;49.50;99473.50;5062558;22;19925;-92
2022/06/24 00:30:16;;;;;;;26.02;5.97;;;;;;;17.01;49.61;99541.50;5034081;28;20105;-92
2022/06/24 00:32:43;;;;;;;17.77;6.53;;;;;;;16.67;49.12;99491.19;4998676;28;20485;-92
2022/06/24 00:35:15;;;;;;;20.55;6.05;;;;;;;16.75;51.50;99495.78;4998422;28;20049;-92
2022/06/24 00:37:42;;;;;;;26.33;6.88;;;;;;;16.66;52.47;99511.66;4982812;28;20042;-92
2022/06/24 00:40:11;;;;;;;23.60;6.90;;;;;;;16.90;51.68;99549.47;4995119;28;20120;-92
2022/06/24 00:42:45;;;;;;;31.85;7.03;;;;;;;16.73;52.74;99533.16;5000738;28;20045;-93
2022/06/24 00:45:24;;;;;;;22.02;6.38;;;;;;;16.34;54.10;99483.09;4999168;28;20050;-92
2022/06/24 00:47:52;;;;;;;21.58;7.63;;;;;;;16.48;54.00;99508.34;4989623;28;20033;-91
2022/06/24 00:50:27;;;;;;;26.80;8.45;;;;;;;16.33;53.16;99492.53;5001142;28;20030;-92
2022/06/24 00:52:58;;;;;;;82.30;10.30;;;;;;;16.32;51.13;99499.19;5034278;28;20060;-91
2022/06/24 00:55:26;;;;;;;46.00;9.55;;;;;;;16.13;53.67;99469.44;5000503;28;20045;-92
2022/06/24 00:57:54;;;;;;;72.63;10.23;;;;;;;16.68;51.73;99554.31;4999834;28;20042;-92
2022/06/24 01:00:26;;;;;;;40.20;8.85;;;;;;;16.72;52.87;99559.13;4999517;28;20040;-92
2022/06/24 01:03:00;;;;;;;36.95;8.75;;;;;;;16.30;51.41;99491.25;4999653;28;20072;-91
2022/06/24 01:05:28;;;;;;;40.65;8.73;;;;;;;16.39;51.82;99496.63;5010162;28;20037;-92
2022/06/24 01:07:55;;;;;;;27.45;8.25;;;;;;;16.31;50.97;99481.81;5028249;28;20040;-93
2022/06/24 01:10:25;;;;;;;29.98;9.18;;;;;;;16.29;53.00;99491.59;5020452;28;20044;-91
2022/06/24 01:12:55;;;;;;;26.95;8.10;;;;;;;16.16;52.98;99471.53;5044235;28;20048;-92
2022/06/24 01:15:21;;;;;;;33.00;7.07;;;;;;;16.32;51.95;99507.44;5042964;28;20055;-91
2022/06/24 01:17:47;;;;;;;16.17;5.60;;;;;;;16.47;51.05;99528.81;5042648;28;20052;-91
2022/06/24 01:20:13;;;;;;;29.63;7.25;;;;;;;16.40;51.92;99501.81;5037690;28;20128;-93
2022/06/24 01:22:41;;;;;;;22.52;7.18;;;;;;;16.45;53.15;99509.03;5001474;28;20095;-92
2022/06/24 01:25:08;;;;;;;22.38;7.72;;;;;;;16.47;52.90;99522.50;5034933;28;20053;-92
2022/06/24 01:27:38;;;;;;;25.30;6.80;;;;;;;16.59;52.48;99545.38;5022272;28;20041;-92
2022/06/24 01:30:06;;;;;;;16.55;6.70;;;;;;;16.76;54.33;99571.16;5032227;28;20090;-91
2022/06/24 01:32:34;;;;;;;16.73;5.13;;;;;;;16.51;48.94;99526.97;5033193;28;20041;-92
2022/06/24 01:35:01;;;;;;;23.52;6.40;;;;;;;16.77;50.06;99553.41;5011292;28;20034;-91
2022/06/24 01:37:27;;;;;;;14.00;5.35;;;;;;;16.97;47.24;99551.66;5016440;28;20048;-91
2022/06/24 01:39:53;;;;;;;14.47;5.07;;;;;;;16.89;47.31;99523.03;5036068;28;20097;-91
2022/06/24 01:42:20;;;;;;;30.00;5.23;;;;;;;16.90;46.34;99497.00;5035488;28;20036;-91
2022/06/24 01:44:46;;;;;;;13.52;4.97;;;;;;;17.11;46.20;99518.91;5035330;28;20390;-90
2022/06/24 01:47:13;;;;;;;17.10;4.97;;;;;;;17.01;46.76;99489.81;5035031;28;20067;-91
2022/06/24 01:49:39;;;;;;;10.27;5.60;;;;;;;17.00;46.24;99481.91;5053747;28;20051;-90
2022/06/24 01:52:07;;;;;;;16.10;4.90;;;;;;;17.22;45.90;99517.25;5006023;28;20367;-91
2022/06/24 01:54:33;;;;;;;22.92;4.85;;;;;;;17.42;45.51;99551.34;5032797;28;20049;-89
2022/06/24 01:57:00;;;;;;;18.47;4.10;;;;;;;17.34;45.55;99521.91;5018777;28;20040;-91
2022/06/24 01:59:26;;;;;;;23.38;4.65;;;;;;;17.17;44.90;99491.84;5003929;28;20276;-92
2022/06/24 02:01:52;;;;;;;14.00;4.90;;;;;;;17.54;44.89;99556.81;5002257;28;20052;-91
2022/06/24 02:04:18;;;;;;;21.35;5.38;;;;;;;17.50;44.43;99546.81;5036219;28;20040;-92
2022/06/24 02:06:44;;;;;;;15.67;4.83;;;;;;;17.24;44.75;99497.53;5002630;28;20033;-92
2022/06/24 02:09:11;;;;;;;23.27;5.33;;;;;;;17.50;45.01;99542.09;5003562;28;20291;-92
2022/06/24 02:14:23;;;;;;;17.98;5.55;;;;;;;17.72;45.43;99565.59;5019032;28;20049;-92
2022/06/24 02:16:50;;;;;;;;;;;;;;;17.95;44.86;99590.72;5050137;28;20032;-91
2022/06/24 02:19:18;;;;;;;19.27;5.00;;;;;;;17.97;44.72;99596.69;5050415;28;19920;-92
2022/06/24 02:21:45;;;;;;;12.57;5.13;;;;;;;17.84;44.71;99561.97;5017987;28;20738;-93
2022/06/24 02:24:15;;;;;;;21.48;4.88;;;;;;;17.87;44.63;99577.03;4997982;28;20155;-93
2022/06/24 02:26:45;;;;;;;22.17;5.15;;;;;;;17.82;45.32;99551.25;4984470;28;20063;-92
2022/06/24 02:29:12;;;;;;;20.33;5.38;;;;;;;17.91;46.35;99555.81;5019177;28;20048;-92
2022/06/24 02:31:42;;;;;;;29.35;6.05;;;;;;;17.68;45.29;99511.34;5002285;28;20065;-93
2022/06/24 02:34:09;;;;;;;22.27;4.95;;;;;;;17.87;45.05;99538.31;5019882;28;20064;-91
2022/06/24 02:36:40;;;;;;;28.02;5.90;;;;;;;18.04;44.77;99566.41;5020221;28;20041;-92
2022/06/24 02:39:06;;;;;;;33.67;5.00;;;;;;;17.88;45.42;99535.22;5019977;28;20048;-92
2022/06/24 02:41:33;;;;;;;24.25;5.65;;;;;;;17.80;45.61;99516.81;5019855;28;20565;-91
2022/06/24 02:43:59;;;;;;;30.70;6.05;;;;;;;17.88;45.52;99529.69;5030969;28;20045;-91
2022/06/24 02:46:25;;;;;;;22.95;5.95;;;;;;;18.16;45.95;99560.00;5004247;28;20041;-91
2022/06/24 02:48:53;;;;;;;21.50;6.17;;;;;;;18.06;44.94;99555.81;5037947;28;20028;-92
2022/06/24 02:51:22;;;;;;;24.40;6.20;;;;;;;18.05;45.05;99553.41;5015518;28;20128;-91
2022/06/24 02:53:49;;;;;;;27.73;6.90;;;;;;;17.84;45.53;99514.94;5038968;28;20584;-91
2022/06/24 02:56:21;;;;;;;18.73;5.40;;;;;;;18.38;45.15;99608.41;5039204;28;20064;-92
2022/06/24 02:58:47;;;;;;;17.33;5.55;;;;;;;17.84;45.30;99518.50;5022741;28;20111;-92
2022/06/24 03:01:24;;;;;;;16.13;5.55;;;;;;;18.44;45.28;99604.19;5038073;28;20573;-92
2022/06/24 03:03:52;;;;;;;33.85;5.90;;;;;;;18.02;46.05;99538.34;5035508;28;20217;-93
2022/06/24 03:06:25;;;;;;;19.02;5.80;;;;;;;18.16;45.60;99551.72;4972487;28;20053;-94
2022/06/24 03:08:52;;;;;;;19.70;5.45;;;;;;;18.05;45.37;99537.63;5001554;28;20712;-94
2022/06/24 03:11:31;;;;;;;26.52;6.38;;;;;;;17.99;45.41;99519.69;5001811;28;20052;-94
2022/06/24 03:14:15;;;;;;;27.80;6.45;;;;;;;18.01;45.92;99536.72;4998816;28;20184;-93
2022/06/24 03:16:42;;;;;;;47.10;6.78;;;;;;;18.07;45.85;99535.28;4957382;29;20043;-92
2022/06/24 03:19:11;;;;;;;36.13;7.40;;;;;;;18.29;45.72;99563.47;4943885;28;20050;-92
2022/06/24 03:21:39;;;;;;;27.13;6.47;;;;;;;18.53;45.30;99595.69;4969939;28;20043;-92
2022/06/24 03:24:07;;;;;;;15.50;5.82;;;;;;;18.35;45.67;99581.44;4920179;29;20310;-94
2022/06/24 03:29:06;;;;;;;24.77;6.10;;;;;;;18.15;45.68;99535.47;4940158;29;20047;-92
2022/06/24 03:31:35;;;;;;;27.05;6.13;;;;;;;18.22;45.95;99543.94;4959328;28;20050;-94
2022/06/24 03:34:09;;;;;;;23.58;6.15;;;;;;;18.48;45.71;99584.91;4960351;28;20516;-92
2022/06/24 03:36:36;;;;;;;17.42;5.60;;;;;;;18.34;45.80;99543.81;5025193;23;20504;-92
2022/06/24 03:39:02;;;;;;;23.83;5.55;;;;;;;18.47;46.07;99558.34;5023069;28;20037;-93
2022/06/24 03:41:30;;;;;;;25.92;5.57;;;;;;;18.98;44.93;99633.97;5022767;28;20068;-92
2022/06/24 03:43:56;;;;;;;17.92;5.78;;;;;;;18.42;44.36;99547.56;5038330;28;20099;-92
2022/06/24 03:46:30;;;;;;;16.65;5.32;;;;;;;18.29;44.06;99528.31;5024149;28;20048;-93
2022/06/24 03:52:44;;;;;;;16.10;5.47;;;;;;;18.86;43.88;99602.78;4980707;28;20523;-91
2022/06/24 03:55:10;;;;;;;;;;;;;;;19.15;43.17;99641.06;4983230;28;20045;-93
2022/06/24 03:57:37;;;;;;;;;;;;;;;19.17;44.15;99640.69;4967883;28;19921;-93
2022/06/24 04:00:08;;;;;;;12.10;4.75;;;;;;;18.95;42.84;99604.19;4984771;28;19921;-94
2022/06/24 04:02:40;;;;;;;17.42;5.00;;;;;;;18.79;43.25;99567.44;4999365;28;20040;-92
2022/06/24 04:05:33;;;;;;;16.42;4.85;;;;;;;18.93;42.26;99584.34;4968640;28;20419;-94
2022/06/24 04:10:53;;;;;;;20.38;4.65;;;;;;;19.20;41.99;99610.28;4979970;28;20046;-92
2022/06/24 04:13:19;;;;;;;13.57;5.43;;;;;;;18.93;41.64;99553.09;4963256;28;20046;-93
2022/06/24 04:15:49;;;;;;;24.48;4.88;;;;;;;19.27;41.71;99586.63;4979488;28;20129;-93
2022/06/24 04:18:16;;;;;;;19.10;5.10;;;;;;;19.35;41.51;99580.09;4979532;28;20046;-93
2022/06/24 04:20:42;;;;;;;;;;;;;;;19.81;41.46;99644.00;4965007;28;20046;-92
2022/06/24 04:23:09;;;;;;;22.45;5.28;;;;;;;19.50;40.94;99587.50;4978572;28;19922;-92
2022/06/24 04:25:41;;;;;;;13.65;5.65;;;;;;;19.70;40.93;99619.66;5010932;28;20049;-93
2022/06/24 04:28:08;;;;;;;13.85;5.22;;;;;;;19.53;41.19;99580.44;4995186;28;20050;-93
2022/06/24 04:30:39;;;;;;;19.75;4.28;;;;;;;19.52;40.55;99567.75;5012136;28;20038;-94
2022/06/24 04:33:05;;;;;;;13.25;4.82;;;;;;;19.84;41.50;99619.13;4985308;23;20508;-93
2022/06/24 04:35:32;;;;;;;17.55;5.18;;;;;;;19.77;41.32;99593.19;4925097;28;20570;-92
2022/06/24 04:38:02;;;;;;;18.15;5.25;;;;;;;19.82;41.18;99584.56;4944715;28;20130;-92
2022/06/24 04:40:31;;;;;;;13.57;5.20;;;;;;;19.98;41.05;99612.22;4957153;28;20042;-94
2022/06/24 04:43:42;;;;;;;19.15;5.25;;;;;;;20.28;41.38;99649.22;4961415;28;20062;-92
2022/06/24 04:46:11;;;;;;;15.88;4.80;;;;;;;19.98;41.66;99596.38;4939451;29;20054;-93
2022/06/24 04:48:38;;;;;;;18.58;5.20;;;;;;;20.05;41.77;99585.38;4940044;29;20043;-92
2022/06/24 04:51:04;;;;;;;18.42;4.93;;;;;;;19.95;41.64;99566.56;4940065;29;20424;-93
2022/06/24 04:53:31;;;;;;;25.67;5.70;;;;;;;20.16;42.41;99583.63;4941252;29;20039;-92
2022/06/24 04:56:31;;;;;;;11.00;5.10;;;;;;;20.03;42.25;99564.72;4943682;29;20049;-94
2022/06/24 04:58:56;;;;;;;14.32;4.88;;;;;;;20.07;42.24;99549.75;4925575;29;20043;-91
2022/06/24 05:01:24;;;;;;;28.70;5.93;;;;;;;20.38;41.70;99590.31;4939517;29;20555;-93
2022/06/24 05:03:51;;;;;;;21.85;4.90;;;;;;;20.51;41.65;99579.03;4938632;29;20062;-94
2022/06/24 05:06:17;;;;;;;24.80;5.30;;;;;;;20.63;41.77;99587.16;4939581;29;20066;-90
2022/06/24 05:08:44;;;;;;;25.42;5.32;;;;;;;20.63;41.25;99581.59;4940680;29;20043;-93
2022/06/24 05:11:12;;;;;;;12.48;4.03;;;;;;;20.73;41.33;99580.97;4924742;29;20062;-92
2022/06/24 05:13:50;;;;;;;24.13;5.15;;;;;;;20.81;41.22;99587.41;4958653;29;20126;-93
2022/06/24 05:16:18;;;;;;;20.23;5.85;;;;;;;20.84;40.93;99587.44;4940451;29;20082;-92
2022/06/24 05:18:44;;;;;;;25.92;5.40;;;;;;;21.26;41.09;99641.25;4941009;29;20058;-93
2022/06/24 05:21:11;;;;;;;20.60;5.75;;;;;;;20.73;41.31;99549.56;4945062;29;20070;-93
2022/06/24 05:23:37;;;;;;;12.80;4.72;;;;;;;20.96;41.19;99588.38;4967568;28;20054;-92
2022/06/24 05:26:04;;;;;;;31.98;5.65;;;;;;;20.84;40.99;99550.53;4955477;28;20050;-91
2022/06/24 05:28:34;;;;;;;26.17;6.68;;;;;;;21.14;41.11;99583.88;4965986;28;20046;-90
2022/06/24 05:31:01;;;;;;;14.52;4.65;;;;;;;21.16;39.83;99575.16;4982775;28;20064;-92
2022/06/24 05:33:29;;;;;;;37.42;7.93;;;;;;;21.05;39.72;99561.91;4965276;28;20669;-94
2022/06/24 05:35:55;;;;;;;17.00;4.50;;;;;;;21.55;39.63;99634.06;4943784;28;20038;-95
2022/06/24 05:38:24;;;;;;;27.52;5.13;;;;;;;21.14;40.07;99560.84;4949347;28;20069;-91
2022/06/24 05:40:53;;;;;;;34.47;5.38;;;;;;;21.48;39.46;99614.50;4951865;28;20041;-93
2022/06/24 05:43:23;;;;;;;96.53;9.32;;;;;;;21.16;39.68;99564.84;4944495;28;20046;-92
2022/06/24 05:45:49;;;;;;;70.25;7.03;;;;;;;21.34;40.31;99567.84;4925656;29;20043;-91
2022/06/24 05:48:15;;;;;;;59.13;6.55;;;;;;;21.66;40.00;99609.97;4949862;28;20050;-89
2022/06/24 05:50:41;;;;;;;30.33;6.30;;;;;;;21.83;38.66;99619.69;4974326;28;20042;-90
2022/06/24 05:56:28;;;;;;;31.73;5.28;;;;;;;21.61;38.15;99567.78;4973985;28;20101;-92
2022/06/24 05:59:01;;;;;;;44.78;5.35;;;;;;;21.63;38.54;99565.41;4958543;28;20051;-92
2022/06/24 06:01:31;;;;;;;19.75;5.75;;;;;;;21.65;38.36;99552.69;4941940;28;20062;-94
2022/06/24 06:04:00;;;;;;;19.67;4.78;;;;;;;21.84;37.89;99575.97;4943418;28;20475;-93
2022/06/24 06:06:26;;;;;;;35.50;5.97;;;;;;;22.11;38.31;99602.47;4944996;28;20043;-94
2022/06/24 06:08:52;;;;;;;17.55;4.93;;;;;;;21.80;38.40;99539.75;4948495;28;20050;-95
2022/06/24 06:11:52;;;;;;;29.70;4.90;;;;;;;21.86;37.43;99526.28;4979674;28;20043;-95
2022/06/24 06:14:18;;;;;;;27.33;5.70;;;;;;;21.94;37.22;99556.56;4886012;29;20044;-94
2022/06/24 06:16:47;;;;;;;26.38;5.03;;;;;;;22.20;37.82;99589.06;4920111;29;20051;-92
2022/06/24 06:19:14;;;;;;;17.58;5.10;;;;;;;22.44;38.07;99609.13;4986597;23;20060;-93
2022/06/24 06:21:40;;;;;;;52.30;7.30;;;;;;;22.67;37.08;99629.22;4991800;28;20038;-93
2022/06/24 06:24:06;;;;;;;47.08;6.03;;;;;;;22.46;37.59;99578.91;5006783;28;20044;-94
2022/06/24 06:29:19;;;;;;;20.50;4.82;;;;;;;22.25;35.72;99549.72;5035570;28;20048;-95
2022/06/24 06:31:50;;;;;;;21.85;4.72;;;;;;;22.49;37.47;99586.50;5021584;28;20483;-93
2022/06/24 06:34:19;;;;;;;37.28;7.07;;;;;;;22.63;37.33;99600.53;5007636;28;20538;-94
2022/06/24 06:36:45;;;;;;;38.78;5.75;;;;;;;22.61;37.43;99563.88;5011211;28;20045;-90
2022/06/24 06:39:48;;;;;;;24.65;5.32;;;;;;;22.75;35.40;99588.28;4987894;28;20040;-94
2022/06/24 06:42:45;;;;;;;21.35;4.63;;;;;;;22.67;35.88;99594.97;5006902;28;20069;-94
2022/06/24 06:45:14;;;;;;;26.48;4.35;;;;;;;22.40;36.74;99535.88;4993270;28;20107;-94
2022/06/24 06:48:06;;;;;;;53.65;5.65;;;;;;;22.47;35.95;99547.06;5009000;28;20048;-93
2022/06/24 06:50:56;;;;;;;33.60;5.70;;;;;;;22.50;36.03;99535.16;5012912;28;20153;-94
2022/06/24 06:57:26;;;;;;;31.23;5.50;;;;;;;22.97;35.99;99615.09;4979001;23;20586;31
2022/06/24 07:00:05;;;;;;;19.58;4.38;;;;;;;22.53;36.05;99539.97;4925717;29;20051;-92
2022/06/24 07:02:43;;;;;;;22.48;4.47;;;;;;;22.75;36.19;99552.84;4941367;29;20051;-90
2022/06/24 07:05:59;;;;;;;37.42;6.82;;;;;;;23.25;36.96;99618.47;4939892;29;20040;-93
2022/06/24 07:08:45;;;;;;;16.17;4.30;;;;;;;22.81;35.71;99550.47;4957649;29;20043;-94
2022/06/24 07:11:14;;;;;;;12.20;4.22;;;;;;;22.86;35.46;99572.41;4939309;29;20043;-91
2022/06/24 07:13:40;;;;;;;11.68;4.47;;;;;;;23.06;35.90;99592.44;4982802;28;20054;-91
2022/06/24 07:16:10;;;;;;;20.98;5.22;;;;;;;22.80;35.82;99529.34;4980758;28;20088;-90
2022/06/24 07:18:37;;;;;;;21.17;4.93;;;;;;;23.26;36.27;99581.00;5017092;23;20057;-92
2022/06/24 07:21:28;;;;;;;10.68;4.15;;;;;;;23.56;35.45;99609.41;5017196;28;20034;-88
2022/06/24 07:23:54;;;;;;;40.47;7.10;;;;;;;23.07;35.88;99521.53;5020370;28;20510;-89
2022/06/24 07:26:21;;;;;;;36.22;6.57;;;;;;;23.58;36.27;99578.31;5022556;28;20046;-90
2022/06/24 07:28:47;;;;;;;40.38;7.40;;;;;;;23.65;37.27;99564.38;5012058;28;20034;-89
2022/06/24 07:31:15;;;;;;;211.63;21.52;;;;;;;23.40;36.74;99519.66;5020025;28;20053;-87
2022/06/24 07:33:41;;;;;;;24.52;5.80;;;;;;;23.43;34.51;99530.03;5035407;28;20061;-87
2022/06/24 07:36:33;;;;;;;21.52;5.20;;;;;;;24.00;36.31;99613.91;5053373;28;20032;-87
2022/06/24 07:38:59;;;;;;;22.35;5.00;;;;;;;23.84;36.24;99569.63;5042968;28;20037;-89
2022/06/24 07:41:31;;;;;;;37.55;6.57;;;;;;;24.00;34.61;99604.75;5001727;28;20065;-87
2022/06/24 07:43:57;;;;;;;44.08;7.47;;;;;;;23.89;35.05;99585.19;5046660;28;20041;-88
2022/06/24 07:46:23;;;;;;;26.35;6.10;;;;;;;23.89;34.74;99574.03;5043973;28;20037;-86
2022/06/24 07:48:50;;;;;;;16.70;5.53;;;;;;;23.99;34.92;99576.03;5032417;28;20037;-88
2022/06/24 07:51:16;;;;;;;52.72;8.00;;;;;;;24.23;35.13;99604.38;5037784;28;20507;-88
2022/06/24 07:53:44;;;;;;;34.83;7.10;;;;;;;23.92;34.19;99551.69;5047358;28;20542;-87
2022/06/24 07:58:55;;;;;;;37.15;6.88;;;;;;;24.08;34.62;99589.59;5034521;28;20526;-89
2022/06/24 08:01:23;;;;;;;19.88;5.22;;;;;;;23.99;33.84;99581.59;5031406;28;20044;-88
2022/06/24 08:03:50;;;;;;;27.02;5.25;;;;;;;23.95;34.90;99589.19;5024163;28;20099;-87
2022/06/24 08:06:16;;;;;;;27.48;5.55;;;;;;;23.82;34.89;99566.44;5043677;28;20068;-88
2022/06/24 08:08:42;;;;;;;;;;;;;;;23.95;34.69;99599.56;5040031;28;20132;-88
2022/06/24 08:11:08;;;;;;;40.97;6.97;;;;;;;23.86;35.30;99569.22;5039885;28;20011;-88
2022/06/24 08:13:35;;;;;;;39.95;7.10;;;;;;;23.88;34.85;99550.88;5031549;28;20048;-88
2022/06/24 08:16:01;;;;;;;28.70;6.65;;;;;;;24.03;34.48;99571.22;5032718;28;20546;-88
2022/06/24 08:18:28;;;;;;;39.13;7.40;;;;;;;23.95;34.56;99555.69;5000291;28;20400;-88
2022/06/24 08:20:54;;;;;;;58.17;8.68;;;;;;;23.97;35.27;99539.31;5012773;28;20095;-89
2022/06/24 08:23:20;;;;;;;47.45;8.82;;;;;;;24.27;35.59;99543.69;5021089;28;20045;-91
2022/06/24 08:25:47;;;;;;;44.50;8.70;;;;;;;24.32;35.33;99512.56;5005403;28;20552;-88
2022/06/24 08:28:12;;;;;;;70.60;11.10;;;;;;;24.64;35.33;99536.91;5027434;28;20487;-88
2022/06/24 08:30:38;;;;;;;49.08;8.48;;;;;;;24.94;35.56;99564.41;5046428;28;20080;-87
2022/06/24 08:33:05;;;;;;;62.83;7.75;;;;;;;24.93;36.95;99551.59;5027821;28;20065;-88
2022/06/24 08:35:31;;;;;;;52.95;8.55;;;;;;;25.07;34.23;99568.34;5006096;28;20042;-89
2022/06/24 08:37:59;;;;;;;75.05;10.20;;;;;;;25.18;34.48;99579.53;4958548;28;20092;-90
2022/06/24 08:40:27;;;;;;;52.88;7.80;;;;;;;25.00;35.16;99532.81;4964450;28;20502;-89
2022/06/24 08:43:00;;;;;;;124.10;14.63;;;;;;;25.08;35.50;99523.16;4988953;28;20410;-90
2022/06/24 08:45:28;;;;;;;43.72;8.38;;;;;;;25.26;35.24;99525.91;4989973;28;20124;-88
2022/06/24 08:47:55;;;;;;;33.47;6.47;;;;;;;25.02;33.07;99554.75;4989235;28;20423;-90
2022/06/24 08:50:46;;;;;;;;;;;;;;;24.78;34.32;99578.81;4974639;28;20048;-92
2022/06/24 08:53:12;;;;;;;25.30;6.45;;;;;;;24.22;34.90;99558.09;5005276;28;19921;-87
2022/06/24 08:55:40;;;;;;;41.28;7.45;;;;;;;24.27;35.23;99583.63;5005397;28;20034;-86
2022/06/24 08:58:11;;;;;;;49.65;7.50;;;;;;;24.10;35.34;99553.69;5004093;28;20437;-88
2022/06/24 09:00:39;;;;;;;53.33;8.90;;;;;;;24.35;36.06;99574.03;4984702;28;20161;-89
2022/06/24 09:03:07;;;;;;;74.47;9.13;;;;;;;24.42;37.09;99550.13;4977702;28;20529;-86
2022/06/24 09:05:36;;;;;;;31.25;7.10;;;;;;;24.74;34.94;99573.22;4986292;28;20573;-88
2022/06/24 09:08:05;;;;;;;38.08;6.95;;;;;;;24.87;36.58;99556.00;4978688;28;20129;-89
2022/06/24 09:10:38;;;;;;;51.35;7.85;;;;;;;24.59;35.37;99499.75;4979783;28;20069;-90
2022/06/24 09:13:05;;;;;;;17.00;5.43;;;;;;;24.81;35.50;99519.28;5013791;28;20485;-89
2022/06/24 09:15:32;;;;;;;67.35;9.30;;;;;;;25.00;34.44;99520.78;5017123;28;20057;-91
2022/06/24 09:17:59;;;;;;;84.85;10.38;;;;;;;25.04;35.69;99511.22;5004880;28;20611;-88
2022/06/24 09:20:49;;;;;;;155.88;16.02;;;;;;;25.40;33.70;99558.63;5027303;28;20053;-88
2022/06/24 09:23:15;;;;;;;46.42;8.88;;;;;;;25.31;34.54;99547.09;5016047;28;20135;-90
2022/06/24 09:25:50;;;;;;;96.55;11.95;;;;;;;25.11;33.50;99551.53;4994666;28;20045;-89
2022/06/24 09:28:30;;;;;;;37.03;7.45;;;;;;;25.14;33.39;99536.78;5018518;28;20037;-90
2022/06/24 09:31:14;;;;;;;43.75;7.20;;;;;;;25.39;34.24;99559.81;4994895;28;20041;-90
2022/06/24 09:34:20;;;;;;;27.30;7.32;;;;;;;25.46;32.94;99551.41;4997939;28;20056;-88
2022/06/24 09:36:47;;;;;;;43.00;7.50;;;;;;;25.18;32.84;99501.97;5023038;28;20450;-90
2022/06/24 09:39:15;;;;;;;57.15;8.10;;;;;;;25.51;32.56;99541.78;5031819;28;20039;-89
2022/06/24 09:41:47;;;;;;;64.93;7.43;;;;;;;25.30;33.52;99506.31;5007565;28;20029;-88
2022/06/24 09:44:14;;;;;;;66.47;9.00;;;;;;;25.44;32.62;99511.84;5017351;28;20099;-91
2022/06/24 09:46:48;;;;;;;29.05;6.20;;;;;;;25.39;33.00;99494.66;4987911;28;20067;-94
2022/06/24 09:49:17;;;;;;;78.97;8.20;;;;;;;25.64;32.62;99547.72;5015955;28;20824;-87
2022/06/24 09:51:44;;;;;;;35.55;6.57;;;;;;;25.41;34.80;99498.66;5013460;28;20038;-85
2022/06/24 09:54:12;;;;;;;139.30;11.10;;;;;;;25.69;34.04;99508.84;5017420;28;20068;-86
2022/06/24 09:56:39;;;;;;;89.57;10.45;;;;;;;25.93;33.56;99517.53;5050071;28;20502;-85
2022/06/24 10:01:53;;;;;;;58.28;7.32;;;;;;;25.84;31.82;99537.59;5036364;28;20639;-88
2022/06/24 10:04:21;;;;;;;27.08;5.95;;;;;;;25.59;31.32;99528.53;5031419;28;20054;-86
2022/06/24 10:06:50;;;;;;;23.63;6.00;;;;;;;25.23;31.80;99479.19;5033153;28;20538;-87
2022/06/24 10:09:25;;;;;;;10.90;5.85;;;;;;;25.31;32.16;99488.31;5031811;28;20037;-88
2022/06/24 10:11:54;;;;;;;15.98;5.13;;;;;;;25.31;30.99;99488.31;5013672;28;20080;-88
2022/06/24 10:14:21;;;;;;;20.25;5.10;;;;;;;25.38;31.27;99490.28;4969515;28;20054;-87
2022/06/24 10:16:50;;;;;;;34.58;6.53;;;;;;;25.53;32.13;99505.78;4996600;28;20466;-88
2022/06/24 10:19:18;;;;;;;33.83;6.05;;;;;;;25.72;32.16;99524.03;5004203;28;20053;-88
2022/06/24 10:21:47;;;;;;;17.73;6.43;;;;;;;25.72;32.13;99519.22;4988804;28;20038;-87
2022/06/24 10:24:15;;;;;;;11.30;5.45;;;;;;;25.84;32.97;99531.19;5007508;28;20057;-87
2022/06/24 10:26:46;;;;;;;9.25;5.15;;;;;;;25.92;33.18;99532.72;4991694;28;20030;-88
2022/06/24 10:29:20;;;;;;;28.08;5.70;;;;;;;25.92;31.82;99522.31;5010791;28;20452;-87
2022/06/24 10:31:54;;;;;;;26.80;6.63;;;;;;;26.03;32.53;99516.66;4999369;28;20095;-88
2022/06/24 10:34:25;;;;;;;17.90;5.65;;;;;;;26.07;31.90;99517.41;5011796;28;20060;-89
2022/06/24 10:37:06;;;;;;;18.52;6.10;;;;;;;26.20;31.96;99523.31;4977941;28;20041;-89
2022/06/24 10:39:54;;;;;;;22.20;4.93;;;;;;;25.96;32.25;99455.06;5010264;28;20034;-87
2022/06/24 10:42:22;;;;;;;14.90;5.68;;;;;;;26.45;31.34;99515.44;4977956;28;20046;-86
2022/06/24 10:45:05;;;;;;;21.92;5.93;;;;;;;26.46;31.01;99516.25;5013003;28;20041;-88
2022/06/24 10:47:34;;;;;;;15.35;5.03;;;;;;;26.21;30.65;99516.47;4980664;28;20134;-91
2022/06/24 10:50:01;;;;;;;10.70;5.03;;;;;;;26.24;31.94;99491.22;5002375;28;20037;-93
2022/06/24 10:52:55;;;;;;;15.30;5.63;;;;;;;26.02;31.25;99462.59;5010601;28;20065;-89
2022/06/24 10:55:24;;;;;;;25.13;5.63;;;;;;;26.42;31.79;99512.66;5014547;28;20403;-95
2022/06/24 10:57:52;;;;;;;13.45;5.55;;;;;;;26.53;32.18;99510.59;4981541;28;20060;-88
2022/06/24 11:00:27;;;;;;;13.30;5.70;;;;;;;26.42;31.07;99473.44;5030012;28;20038;-94
2022/06/24 11:03:11;;;;;;;24.10;5.90;;;;;;;26.66;31.07;99508.84;5036215;28;20041;-88
2022/06/24 11:05:46;;;;;;;16.08;6.25;;;;;;;26.60;31.10;99484.50;5030151;28;20101;-92
2022/06/24 11:11:32;;;;;;;30.00;5.65;;;;;;;26.48;30.80;99461.38;5042121;28;20103;-88
2022/06/24 11:14:20;;;;;;;;;;;;;;;26.69;29.98;99507.22;5035057;28;20125;-89
2022/06/24 11:17:10;;;;;;;18.20;5.53;;;;;;;26.12;30.17;99449.69;4995892;23;20017;-92
2022/06/24 11:19:40;;;;;;;13.38;5.22;;;;;;;26.10;29.67;99470.97;4985205;28;20049;-89
2022/06/24 11:22:06;;;;;;;23.40;6.10;;;;;;;26.30;30.11;99471.97;4964912;28;20101;-89
2022/06/24 11:24:35;;;;;;;;;;;;;;;26.65;29.93;99514.88;4959768;28;20125;-92
2022/06/24 11:27:07;;;;;;;17.00;5.63;;;;;;;26.68;29.44;99506.41;4975609;28;19922;-92
2022/06/24 11:29:50;;;;;;;28.50;6.15;;;;;;;26.59;29.52;99505.31;4973274;28;20035;-88
2022/06/24 11:32:37;;;;;;;32.38;6.43;;;;;;;26.54;29.66;99500.19;4964255;28;20094;-86
2022/06/24 11:35:04;;;;;;;;;;;;;;;26.74;29.59;99497.56;4969729;28;20035;-90
2022/06/24 11:37:31;;;;;;;20.10;6.55;;;;;;;26.42;30.31;99448.19;4959512;28;20315;-89
2022/06/24 11:39:58;;;;;;;35.25;5.88;;;;;;;26.45;29.90;99453.75;4963017;28;20043;-94
2022/06/24 11:42:28;;;;;;;18.35;5.97;;;;;;;26.52;29.86;99427.69;4957583;28;20083;-90
2022/06/24 11:44:54;;;;;;;23.73;5.70;;;;;;;26.66;30.35;99437.97;4957820;28;20039;-91
2022/06/24 11:47:34;;;;;;;42.53;8.27;;;;;;;26.90;30.59;99424.81;4956316;29;20521;-90
2022/06/24 11:50:01;;;;;;;97.22;11.05;;;;;;;27.16;29.74;99434.53;4950868;28;20047;-90
2022/06/24 11:52:27;;;;;;;54.88;9.35;;;;;;;27.27;29.37;99437.97;4958856;28;20118;-91
2022/06/24 11:54:53;;;;;;;57.15;8.20;;;;;;;27.44;30.00;99438.13;4975719;28;20401;-90
2022/06/24 11:57:21;;;;;;;87.78;10.30;;;;;;;27.75;28.69;99450.84;4958706;28;20073;-93
2022/06/24 11:59:47;;;;;;;57.22;8.75;;;;;;;27.52;28.46;99439.59;4975280;28;20043;-90
2022/06/24 12:02:14;;;;;;;60.92;8.43;;;;;;;27.40;28.48;99422.13;4973168;28;20342;-92
2022/06/24 12:04:47;;;;;;;57.33;9.57;;;;;;;27.56;28.58;99429.09;4973224;28;20241;-95
2022/06/24 12:07:14;;;;;;;33.30;6.97;;;;;;;27.64;28.27;99461.44;4976592;28;20047;-93
2022/06/24 12:09:41;;;;;;;65.60;8.73;;;;;;;27.39;28.69;99422.56;4976097;28;20078;-94
2022/06/24 12:12:09;;;;;;;116.00;15.25;;;;;;;27.72;28.70;99448.09;4974780;28;20042;-90
2022/06/24 12:14:36;;;;;;;30.50;6.60;;;;;;;27.22;27.72;99396.34;4969583;28;20432;-87
2022/06/24 12:17:09;;;;;;;163.15;10.70;;;;;;;27.60;27.80;99463.53;4980729;28;20141;-95
2022/06/24 12:20:12;;;;;;;41.78;7.72;;;;;;;27.47;28.12;99454.09;4979471;28;21131;-88
2022/06/24 12:22:40;;;;;;;61.83;8.00;;;;;;;27.60;28.25;99469.16;4917846;29;20047;-92
2022/06/24 12:25:10;;;;;;;27.27;7.03;;;;;;;27.73;27.98;99458.91;4950580;28;20136;-89
2022/06/24 12:27:49;;;;;;;90.75;8.93;;;;;;;27.66;27.76;99456.22;4960887;28;20043;-89